Time;durP1;ratioP1;P1;durP2;ratioP2;P2;SDS_P1;SDS_P2;PMS_P1;PMS_P2;Temp;Humidity;BMP_temperature;BMP_pressure;BME280_temperature;BME280_humidity;BME280_pressure;Samples;Min_cycle;Max_cycle;Signal;HPM_P1;HPM_P2
2024/02/25 00:01:27;;;;;;;6.05;3.97;;;6.60;99.90;;;;;;5020833;28;20517;-64
2024/02/25 00:03:53;;;;;;;9.07;4.35;;;6.60;99.90;;;;;;5020672;28;20224;-64
2024/02/25 00:06:19;;;;;;;10.48;4.45;;;6.60;99.90;;;;;;5022264;28;20191;-64
2024/02/25 00:08:45;;;;;;;7.32;4.13;;;6.60;99.90;;;;;;5024247;28;20191;-65
2024/02/25 00:11:10;;;;;;;8.85;4.57;;;6.60;99.90;;;;;;5008482;28;20192;-63
2024/02/25 00:13:37;;;;;;;7.65;4.57;;;6.60;99.90;;;;;;5024148;28;20203;-63
2024/02/25 00:16:03;;;;;;;10.70;4.65;;;6.50;99.90;;;;;;5024290;28;20195;-64
2024/02/25 00:18:29;;;;;;;7.75;4.78;;;6.50;99.90;;;;;;5024176;28;20227;-63
2024/02/25 00:20:55;;;;;;;6.18;4.40;;;6.60;99.90;;;;;;5026162;28;20261;-63
2024/02/25 00:23:20;;;;;;;9.07;4.80;;;6.60;99.90;;;;;;5024153;28;20240;-64
2024/02/25 00:25:46;;;;;;;8.07;4.57;;;6.60;99.90;;;;;;5025642;28;20715;-64
2024/02/25 00:28:12;;;;;;;9.65;4.97;;;6.60;99.90;;;;;;5024036;28;20210;-65
2024/02/25 00:30:37;;;;;;;10.13;4.70;;;6.60;99.90;;;;;;5023505;28;20233;-64
2024/02/25 00:33:04;;;;;;;5.80;4.28;;;6.60;99.90;;;;;;5038950;28;20534;-63
2024/02/25 00:35:29;;;;;;;7.50;4.65;;;6.60;99.90;;;;;;5024010;28;20187;-64
2024/02/25 00:37:55;;;;;;;10.15;4.60;;;6.50;99.90;;;;;;5023754;28;20195;-63
2024/02/25 00:40:21;;;;;;;8.05;4.60;;;6.60;99.90;;;;;;5023775;28;20237;-64
2024/02/25 00:42:46;;;;;;;6.97;4.45;;;6.60;99.90;;;;;;5023356;28;20254;-63
2024/02/25 00:45:12;;;;;;;9.30;4.53;;;6.50;99.90;;;;;;5026987;28;20671;-64
2024/02/25 00:47:38;;;;;;;5.45;4.03;;;6.50;99.90;;;;;;5023371;28;20203;-63
2024/02/25 00:50:05;;;;;;;5.88;4.47;;;6.50;99.90;;;;;;5023953;28;20877;-64
2024/02/25 00:52:33;;;;;;;8.65;4.75;;;6.50;99.90;;;;;;5023197;28;20204;-63
2024/02/25 00:55:00;;;;;;;8.15;4.85;;;6.50;99.90;;;;;;5023564;28;20242;-64
2024/02/25 00:57:26;;;;;;;7.55;4.75;;;6.50;99.90;;;;;;5023572;28;20584;-64
2024/02/25 00:59:52;;;;;;;7.55;4.47;;;6.50;99.90;;;;;;5022781;28;20278;-66
2024/02/25 01:02:18;;;;;;;9.27;5.57;;;6.50;99.90;;;;;;5023326;28;20275;-65
2024/02/25 01:04:44;;;;;;;8.10;5.22;;;6.50;99.90;;;;;;5022780;28;20219;-63
2024/02/25 01:07:10;;;;;;;9.70;5.15;;;6.40;99.90;;;;;;5023241;28;20188;-63
2024/02/25 01:09:35;;;;;;;8.32;5.22;;;6.40;99.90;;;;;;5023481;28;20188;-64
2024/02/25 01:12:01;;;;;;;8.70;5.55;;;6.40;99.90;;;;;;5022557;28;20188;-65
2024/02/25 01:14:27;;;;;;;10.85;5.22;;;6.40;99.90;;;;;;5023247;28;20192;-63
2024/02/25 01:16:54;;;;;;;10.77;5.75;;;6.40;99.90;;;;;;5022604;28;20857;-61
2024/02/25 01:19:21;;;;;;;8.57;5.40;;;6.40;99.90;;;;;;5023746;28;20208;-63
2024/02/25 01:21:47;;;;;;;10.73;4.95;;;6.30;99.90;;;;;;5023084;28;20635;-63
2024/02/25 01:24:13;;;;;;;8.80;5.03;;;6.40;99.90;;;;;;5023196;28;20260;-63
2024/02/25 01:26:42;;;;;;;8.88;5.20;;;6.40;99.90;;;;;;5023125;28;20188;-64
2024/02/25 01:29:09;;;;;;;10.98;5.40;;;6.40;99.90;;;;;;5037892;28;20652;-65
2024/02/25 01:31:44;;;;;;;11.60;5.90;;;6.30;99.90;;;;;;5022726;28;20191;-64
2024/02/25 01:34:11;;;;;;;9.30;5.93;;;6.30;99.90;;;;;;5023035;28;20195;-64
2024/02/25 01:36:40;;;;;;;10.30;5.72;;;6.30;99.90;;;;;;5026794;28;20206;-65
2024/02/25 01:39:07;;;;;;;8.15;5.90;;;6.30;99.90;;;;;;5021143;28;20555;-64
2024/02/25 01:41:33;;;;;;;9.23;6.32;;;6.30;99.90;;;;;;5022877;28;20243;-65
2024/02/25 01:43:58;;;;;;;11.00;6.40;;;6.30;99.90;;;;;;5022132;28;20219;-63
2024/02/25 01:46:24;;;;;;;8.73;5.78;;;6.30;99.90;;;;;;5022991;28;20188;-64
2024/02/25 01:48:51;;;;;;;11.00;6.53;;;6.30;99.90;;;;;;5022934;28;20192;-64
2024/02/25 01:51:21;;;;;;;8.50;6.38;;;6.30;99.90;;;;;;5022359;28;20237;-63
2024/02/25 01:53:50;;;;;;;10.07;6.30;;;6.30;99.90;;;;;;5021166;28;20196;-64
2024/02/25 01:56:19;;;;;;;8.45;6.18;;;6.20;99.90;;;;;;5022339;28;20254;-64
2024/02/25 01:58:46;;;;;;;10.80;6.55;;;6.20;99.90;;;;;;5022256;28;20192;-63
2024/02/25 02:01:14;;;;;;;11.10;6.95;;;6.20;99.90;;;;;;5022183;28;20284;-63
2024/02/25 02:03:43;;;;;;;8.75;6.55;;;6.20;99.90;;;;;;5022083;28;21086;-64
2024/02/25 02:06:09;;;;;;;11.13;6.32;;;6.20;99.90;;;;;;5036852;28;20278;-63
2024/02/25 02:08:39;;;;;;;12.57;6.70;;;6.20;99.90;;;;;;5022021;28;20180;-64
2024/02/25 02:11:21;;;;;;;9.25;7.38;;;6.10;99.90;;;;;;5021542;28;20206;-62
2024/02/25 02:13:47;;;;;;;14.95;7.82;;;6.10;99.90;;;;;;5021985;28;20196;-64
2024/02/25 02:16:14;;;;;;;12.93;7.80;;;6.10;99.90;;;;;;5022213;28;20199;-64
2024/02/25 02:18:44;;;;;;;12.40;8.18;;;6.00;99.90;;;;;;5023168;28;20224;-64
2024/02/25 02:21:16;;;;;;;12.73;8.32;;;6.00;99.90;;;;;;5021838;28;20191;-64
2024/02/25 02:23:42;;;;;;;14.68;8.10;;;6.00;99.90;;;;;;5021591;28;20220;-62
2024/02/25 02:26:08;;;;;;;13.38;8.50;;;6.00;99.90;;;;;;5021720;28;20261;-63
2024/02/25 02:28:34;;;;;;;12.68;8.73;;;5.90;99.90;;;;;;5021511;28;20593;-63
2024/02/25 02:30:59;;;;;;;12.02;8.07;;;5.90;99.90;;;;;;5021451;28;20303;-64
2024/02/25 02:33:25;;;;;;;10.60;7.53;;;6.00;99.90;;;;;;5020961;28;20199;-64
2024/02/25 02:35:51;;;;;;;11.05;8.48;;;6.00;99.90;;;;;;5021683;28;20195;-63
2024/02/25 02:38:17;;;;;;;12.85;7.50;;;6.00;99.90;;;;;;5022329;28;20227;-63
2024/02/25 02:40:44;;;;;;;14.68;8.20;;;6.00;99.90;;;;;;5021438;28;20258;-62
2024/02/25 02:43:10;;;;;;;10.48;7.32;;;6.00;99.90;;;;;;5021488;28;20224;-63
2024/02/25 02:45:36;;;;;;;10.60;7.35;;;6.00;99.90;;;;;;5021353;28;20606;-64
2024/02/25 02:48:11;;;;;;;11.63;7.55;;;6.00;99.90;;;;;;5021793;28;20625;-65
2024/02/25 02:50:37;;;;;;;16.45;6.93;;;5.90;99.90;;;;;;5021144;28;20336;-62
2024/02/25 02:53:04;;;;;;;10.02;7.10;;;6.00;99.90;;;;;;5021507;28;20219;-64
2024/02/25 02:55:30;;;;;;;11.00;7.00;;;6.00;99.90;;;;;;5022233;28;20200;-65
2024/02/25 02:57:55;;;;;;;13.27;6.82;;;6.00;99.90;;;;;;5021107;28;20222;-64
2024/02/25 03:00:21;;;;;;;9.45;6.35;;;6.00;99.90;;;;;;5021401;28;20198;-63
2024/02/25 03:02:47;;;;;;;9.00;6.25;;;6.00;99.90;;;;;;5021175;28;20294;-64
2024/02/25 03:05:12;;;;;;;7.88;5.63;;;6.00;99.90;;;;;;5021331;28;20277;-63
2024/02/25 03:07:38;;;;;;;7.90;5.57;;;6.00;99.90;;;;;;5021287;28;20200;-63
2024/02/25 03:10:06;;;;;;;8.73;5.60;;;6.00;99.90;;;;;;5007388;28;20305;-63
2024/02/25 03:12:32;;;;;;;8.00;4.72;;;6.00;99.90;;;;;;5021024;28;20204;-63
2024/02/25 03:14:57;;;;;;;8.05;5.13;;;6.10;99.90;;;;;;5020613;28;20234;-63
2024/02/25 03:17:23;;;;;;;6.00;4.15;;;6.10;99.90;;;;;;5036259;28;20195;-63
2024/02/25 03:19:49;;;;;;;8.18;5.03;;;6.10;99.90;;;;;;5005930;28;20621;-64
2024/02/25 03:22:15;;;;;;;6.63;4.90;;;6.10;99.90;;;;;;5021180;28;20200;-63
2024/02/25 03:24:40;;;;;;;7.13;5.00;;;6.10;99.90;;;;;;5021038;28;20988;-64
2024/02/25 03:27:06;;;;;;;6.65;4.85;;;6.10;99.90;;;;;;5021180;28;20196;-64
2024/02/25 03:29:32;;;;;;;10.88;4.90;;;6.10;99.90;;;;;;5021237;28;20701;-63
2024/02/25 03:31:58;;;;;;;7.72;4.72;;;6.10;99.90;;;;;;5021090;28;20210;-64
2024/02/25 03:34:23;;;;;;;7.20;4.82;;;6.10;99.90;;;;;;5021211;28;20954;-63
2024/02/25 03:36:49;;;;;;;8.13;4.90;;;6.10;99.90;;;;;;5021163;28;20196;-63
2024/02/25 03:39:16;;;;;;;5.35;4.30;;;6.10;99.90;;;;;;5021031;28;20876;-61
2024/02/25 03:41:42;;;;;;;6.75;4.63;;;6.10;99.90;;;;;;5023002;28;20595;-63
2024/02/25 03:44:07;;;;;;;9.45;5.30;;;6.20;99.90;;;;;;5024883;28;20219;-63
2024/02/25 03:46:33;;;;;;;9.45;4.88;;;6.20;99.90;;;;;;5023733;28;20577;-64
2024/02/25 03:48:59;;;;;;;8.68;5.32;;;6.20;99.90;;;;;;5024367;28;20279;-64
2024/02/25 03:51:25;;;;;;;7.57;4.50;;;6.20;99.90;;;;;;5024729;28;20214;-64
2024/02/25 03:53:50;;;;;;;7.82;4.88;;;6.10;99.90;;;;;;5024686;28;20199;-63
2024/02/25 03:56:16;;;;;;;7.93;4.88;;;6.20;99.90;;;;;;5024751;28;20600;-64
2024/02/25 03:58:42;;;;;;;8.95;5.18;;;6.20;99.90;;;;;;5024387;28;20199;-62
2024/02/25 04:01:07;;;;;;;7.63;5.07;;;6.20;99.90;;;;;;5023916;28;20605;-64
2024/02/25 04:03:33;;;;;;;7.88;4.97;;;6.20;99.90;;;;;;5024503;28;20207;-62
2024/02/25 04:06:00;;;;;;;8.75;4.88;;;6.20;99.90;;;;;;5024050;28;20293;-64
2024/02/25 04:08:25;;;;;;;11.10;5.07;;;6.20;99.90;;;;;;5024415;28;20728;-64
2024/02/25 04:10:51;;;;;;;7.78;4.88;;;6.20;99.90;;;;;;5024235;28;20283;-65
2024/02/25 04:13:17;;;;;;;8.38;5.00;;;6.20;99.90;;;;;;5024585;28;20215;-63
2024/02/25 04:15:44;;;;;;;8.45;4.80;;;6.20;99.90;;;;;;5024249;28;20234;-64
2024/02/25 04:18:10;;;;;;;7.50;5.10;;;6.20;99.90;;;;;;5024377;28;20306;-63
2024/02/25 04:20:35;;;;;;;8.30;5.20;;;6.20;99.90;;;;;;5025283;28;20287;-63
2024/02/25 04:23:01;;;;;;;8.07;5.25;;;6.20;99.90;;;;;;5023884;28;20294;-65
2024/02/25 04:25:27;;;;;;;7.80;5.15;;;6.20;99.90;;;;;;5023708;28;20275;-63
2024/02/25 04:27:52;;;;;;;6.93;4.88;;;6.20;99.90;;;;;;5023835;28;20202;-62
2024/02/25 04:30:18;;;;;;;7.18;4.88;;;6.20;99.90;;;;;;5023746;28;20192;-63
2024/02/25 04:32:46;;;;;;;12.50;5.03;;;6.20;99.90;;;;;;5024115;28;20192;-64
2024/02/25 04:35:12;;;;;;;6.68;4.85;;;6.20;99.90;;;;;;5023909;28;20204;-62
2024/02/25 04:37:38;;;;;;;6.78;4.50;;;6.20;99.90;;;;;;5024113;28;20226;-63
2024/02/25 04:40:05;;;;;;;9.00;5.00;;;6.20;99.90;;;;;;5023284;28;20204;-65
2024/02/25 04:42:30;;;;;;;8.30;4.75;;;6.20;99.90;;;;;;5021978;28;20644;-64
2024/02/25 04:44:56;;;;;;;8.43;4.55;;;6.20;99.90;;;;;;5026720;28;20192;-62
2024/02/25 04:47:22;;;;;;;10.43;5.15;;;6.20;99.90;;;;;;5023717;28;20188;-64
2024/02/25 04:49:48;;;;;;;7.03;4.90;;;6.20;99.90;;;;;;5023778;28;20203;-64
2024/02/25 04:52:14;;;;;;;6.68;4.90;;;6.20;99.90;;;;;;5023252;28;20199;-64
2024/02/25 04:54:42;;;;;;;7.43;5.20;;;6.20;99.90;;;;;;5023731;28;20191;-63
2024/02/25 04:57:08;;;;;;;8.20;5.32;;;6.20;99.90;;;;;;5023475;28;20203;-65
2024/02/25 04:59:33;;;;;;;8.15;5.57;;;6.20;99.90;;;;;;5022845;28;20191;-62
2024/02/25 05:02:00;;;;;;;10.55;5.93;;;6.20;99.90;;;;;;5023449;28;20200;-65
2024/02/25 05:04:26;;;;;;;6.95;5.22;;;6.20;99.90;;;;;;5023300;28;20223;-63
2024/02/25 05:06:51;;;;;;;9.73;5.57;;;6.20;99.90;;;;;;5038131;28;20195;-63
2024/02/25 05:09:17;;;;;;;9.55;6.10;;;6.20;99.90;;;;;;5024877;28;20187;-65
2024/02/25 05:11:43;;;;;;;11.32;5.50;;;6.20;99.90;;;;;;5023195;28;20275;-63
2024/02/25 05:14:08;;;;;;;11.43;5.95;;;6.20;99.90;;;;;;5023026;28;20196;-64
2024/02/25 05:16:34;;;;;;;9.40;5.70;;;6.20;99.90;;;;;;5023109;28;20231;-63
2024/02/25 05:19:00;;;;;;;9.23;5.95;;;6.30;99.90;;;;;;5022777;28;20294;-64
2024/02/25 05:21:26;;;;;;;7.57;6.10;;;6.20;99.90;;;;;;5023222;28;20231;-65
2024/02/25 05:23:51;;;;;;;10.65;6.32;;;6.20;99.90;;;;;;5023022;28;20207;-64
2024/02/25 05:26:17;;;;;;;8.18;6.00;;;6.30;99.90;;;;;;5023385;28;20211;-64
2024/02/25 05:28:43;;;;;;;8.48;6.40;;;6.20;99.90;;;;;;5021412;28;20180;-61
2024/02/25 05:31:13;;;;;;;10.23;7.30;;;6.30;99.90;;;;;;5022560;28;20195;-62
2024/02/25 05:33:39;;;;;;;12.43;7.13;;;6.20;99.90;;;;;;5022985;28;20539;-63
2024/02/25 05:36:05;;;;;;;8.07;6.55;;;6.30;99.90;;;;;;5024250;28;20198;-63
2024/02/25 05:38:31;;;;;;;9.43;6.95;;;6.30;99.90;;;;;;5022269;28;20261;-62
2024/02/25 05:40:57;;;;;;;11.23;6.95;;;6.30;99.90;;;;;;5022593;28;20304;-63
2024/02/25 05:43:23;;;;;;;10.43;7.65;;;6.30;99.90;;;;;;5022387;28;20235;-63
2024/02/25 05:45:48;;;;;;;14.05;7.68;;;6.30;99.90;;;;;;5022376;28;20192;-64
2024/02/25 05:48:14;;;;;;;10.35;7.10;;;6.30;99.90;;;;;;5022656;28;20601;-63
2024/02/25 05:50:40;;;;;;;9.55;8.00;;;6.30;99.90;;;;;;5022254;28;20183;-61
2024/02/25 05:53:06;;;;;;;10.43;7.95;;;6.30;99.90;;;;;;5022685;28;20210;-63
2024/02/25 05:55:31;;;;;;;11.98;8.10;;;6.30;99.90;;;;;;5022225;28;20657;-63
2024/02/25 05:57:57;;;;;;;14.05;8.52;;;6.30;99.90;;;;;;5022037;28;20226;-62
2024/02/25 06:00:23;;;;;;;11.55;8.20;;;6.30;99.90;;;;;;5021727;28;20286;-62
2024/02/25 06:02:48;;;;;;;11.10;8.52;;;6.30;99.90;;;;;;5022693;28;20216;-65
2024/02/25 06:05:15;;;;;;;13.35;8.13;;;6.30;99.90;;;;;;5021622;28;20645;-62
2024/02/25 06:07:42;;;;;;;11.85;8.73;;;6.30;99.90;;;;;;5021856;28;20652;-62
2024/02/25 06:10:08;;;;;;;14.20;8.55;;;6.30;99.90;;;;;;5022200;28;20231;-69
2024/02/25 06:12:35;;;;;;;13.35;9.07;;;6.30;99.90;;;;;;5023393;28;20192;-67
2024/02/25 06:15:03;;;;;;;13.20;8.43;;;6.30;99.90;;;;;;5022046;28;20601;-67
2024/02/25 06:17:29;;;;;;;11.00;8.50;;;6.30;99.90;;;;;;5021836;28;20195;-67
2024/02/25 06:19:56;;;;;;;10.77;8.32;;;6.30;99.90;;;;;;5021688;28;20250;-69
2024/02/25 06:22:21;;;;;;;15.27;8.93;;;6.30;99.90;;;;;;5022095;28;20184;-64
2024/02/25 06:24:47;;;;;;;13.77;8.82;;;6.40;99.90;;;;;;5021885;28;20183;-63
2024/02/25 06:27:16;;;;;;;12.77;9.15;;;6.40;99.90;;;;;;5021537;28;20180;-69
2024/02/25 06:29:41;;;;;;;13.32;8.15;;;6.40;99.90;;;;;;5021244;28;20191;-68
2024/02/25 06:32:07;;;;;;;12.20;8.35;;;6.40;99.90;;;;;;5021732;28;20195;-69
2024/02/25 06:34:33;;;;;;;10.95;8.43;;;6.40;99.90;;;;;;5021477;28;20183;-67
2024/02/25 06:36:58;;;;;;;12.60;8.80;;;6.40;99.90;;;;;;5024337;28;20644;-68
2024/02/25 06:39:24;;;;;;;15.55;9.85;;;6.50;99.90;;;;;;5020710;28;20271;-63
2024/02/25 06:41:51;;;;;;;11.23;8.48;;;6.50;99.90;;;;;;5021198;28;21002;-64
2024/02/25 06:44:17;;;;;;;10.63;8.50;;;6.60;99.90;;;;;;5020304;28;20235;-65
2024/02/25 06:46:43;;;;;;;18.17;8.68;;;6.50;99.90;;;;;;5021683;28;20234;-64
2024/02/25 06:49:08;;;;;;;11.90;8.52;;;6.60;99.90;;;;;;5021554;28;20188;-63
2024/02/25 06:51:34;;;;;;;11.35;9.07;;;6.60;99.90;;;;;;5021225;28;20636;-70
2024/02/25 06:54:00;;;;;;;14.63;8.85;;;6.60;99.90;;;;;;5003801;28;20346;-66
2024/02/25 06:56:26;;;;;;;14.80;8.60;;;6.60;99.90;;;;;;5021327;28;20274;-64
2024/02/25 06:58:51;;;;;;;13.55;8.98;;;6.70;99.90;;;;;;5021360;28;20234;-68
2024/02/25 07:01:19;;;;;;;12.43;8.70;;;6.70;99.90;;;;;;5021788;28;20199;-68
2024/02/25 07:03:45;;;;;;;12.95;8.93;;;6.70;99.90;;;;;;5021406;28;20215;-66
2024/02/25 07:06:14;;;;;;;11.60;9.13;;;6.70;99.90;;;;;;5021290;28;20192;-69
2024/02/25 07:08:40;;;;;;;12.10;8.80;;;6.70;99.90;;;;;;5021181;28;20770;-68
2024/02/25 07:11:19;;;;;;;13.10;9.20;;;6.70;99.90;;;;;;5021725;28;20598;-68
2024/02/25 07:13:46;;;;;;;11.30;8.77;;;6.70;99.90;;;;;;5036027;28;20529;-66
2024/02/25 07:16:12;;;;;;;12.68;9.05;;;6.70;99.90;;;;;;5023793;28;20686;-66
2024/02/25 07:18:38;;;;;;;11.52;8.43;;;6.80;99.90;;;;;;5025463;28;20211;-75
2024/02/25 07:21:06;;;;;;;11.80;8.98;;;6.80;99.90;;;;;;5025093;28;20196;-63
2024/02/25 07:23:32;;;;;;;12.82;9.13;;;6.80;99.90;;;;;;5025223;28;20290;-60
2024/02/25 07:25:58;;;;;;;12.63;8.40;;;6.80;99.90;;;;;;5024523;28;20287;-64
2024/02/25 07:28:24;;;;;;;11.60;8.25;;;6.80;99.90;;;;;;5024595;28;20632;-61
2024/02/25 07:30:50;;;;;;;11.32;8.65;;;6.80;99.90;;;;;;5024258;28;20172;-63
2024/02/25 07:33:16;;;;;;;15.18;8.90;;;6.90;99.90;;;;;;5024929;28;21369;-63
2024/02/25 07:35:42;;;;;;;9.50;7.53;;;6.90;99.90;;;;;;5039643;28;20208;-63
2024/02/25 07:38:08;;;;;;;11.27;8.00;;;6.90;99.90;;;;;;5025043;28;20781;-69
2024/02/25 07:40:34;;;;;;;9.10;7.72;;;6.90;99.90;;;;;;5026183;28;20602;-63
2024/02/25 07:42:59;;;;;;;11.43;7.57;;;6.90;99.90;;;;;;5024403;28;20271;-64
2024/02/25 07:45:26;;;;;;;8.82;7.15;;;7.00;99.90;;;;;;5023354;28;20200;-63
2024/02/25 07:47:52;;;;;;;10.15;7.38;;;7.00;99.90;;;;;;5022653;28;20262;-64
2024/02/25 07:50:17;;;;;;;10.05;7.75;;;7.00;99.90;;;;;;5024157;28;20254;-63
2024/02/25 07:52:43;;;;;;;10.00;7.30;;;7.00;99.90;;;;;;5023999;28;20314;-63
2024/02/25 07:55:09;;;;;;;8.20;6.85;;;7.10;99.90;;;;;;5025610;28;20222;-64
2024/02/25 07:57:35;;;;;;;9.48;6.72;;;7.10;99.90;;;;;;5025670;28;20321;-62
2024/02/25 08:00:02;;;;;;;12.00;6.95;;;7.20;99.90;;;;;;5024415;28;20247;-64
2024/02/25 08:02:33;;;;;;;9.73;7.18;;;7.10;99.90;;;;;;5024002;28;20597;-63
2024/02/25 08:04:59;;;;;;;10.07;6.88;;;7.20;99.90;;;;;;5024327;28;20266;-64
2024/02/25 08:07:25;;;;;;;9.65;7.25;;;7.20;99.90;;;;;;5024020;28;20192;-64
2024/02/25 08:09:50;;;;;;;7.65;6.40;;;7.20;99.90;;;;;;5024811;28;20195;-63
2024/02/25 08:12:16;;;;;;;9.00;7.13;;;7.20;99.90;;;;;;5024635;28;20215;-63
2024/02/25 08:14:42;;;;;;;9.50;7.15;;;7.30;99.90;;;;;;5023786;28;20556;-64
2024/02/25 08:17:08;;;;;;;7.90;6.88;;;7.30;99.90;;;;;;5039508;28;20203;-63
2024/02/25 08:19:34;;;;;;;9.57;6.75;;;7.40;99.90;;;;;;5024206;28;20188;-62
2024/02/25 08:22:01;;;;;;;7.57;6.15;;;7.40;99.90;;;;;;5023722;28;20200;-63
2024/02/25 08:24:26;;;;;;;7.72;6.10;;;7.40;99.90;;;;;;5024098;28;20208;-63
2024/02/25 08:26:52;;;;;;;8.18;6.57;;;7.40;99.90;;;;;;5023238;28;20192;-64
2024/02/25 08:29:18;;;;;;;7.68;5.82;;;7.50;99.90;;;;;;5024254;28;20193;-64
2024/02/25 08:31:47;;;;;;;6.95;5.95;;;7.60;99.90;;;;;;5025333;28;20184;-62
2024/02/25 08:34:12;;;;;;;8.55;6.28;;;7.60;99.90;;;;;;5023336;28;20694;-61
2024/02/25 08:36:39;;;;;;;8.32;6.00;;;7.70;99.90;;;;;;5023758;28;20196;-64
2024/02/25 08:39:05;;;;;;;7.25;5.80;;;7.80;99.90;;;;;;5022672;28;20297;-61
2024/02/25 08:41:31;;;;;;;6.88;6.03;;;7.80;99.90;;;;;;5023254;28;20671;-61
2024/02/25 08:43:57;;;;;;;10.48;6.20;;;7.90;99.90;;;;;;5023541;28;20250;-64
2024/02/25 08:46:23;;;;;;;10.68;8.25;;;8.00;99.90;;;;;;5023726;28;21094;-63
2024/02/25 08:48:49;;;;;;;8.65;6.45;;;8.00;99.90;;;;;;5023696;28;20200;-63
2024/02/25 08:51:15;;;;;;;7.68;6.88;;;8.10;99.90;;;;;;5023218;28;20242;-67
2024/02/25 08:53:40;;;;;;;10.32;7.00;;;8.10;99.90;;;;;;5010393;28;20720;-66
2024/02/25 08:56:06;;;;;;;9.27;6.53;;;8.10;99.90;;;;;;5021584;28;20595;-68
2024/02/25 08:58:33;;;;;;;7.68;5.90;;;8.20;99.90;;;;;;5021415;28;20228;-68
2024/02/25 09:00:59;;;;;;;10.85;6.60;;;8.20;99.90;;;;;;5022509;28;20274;-69
2024/02/25 09:03:24;;;;;;;9.05;6.95;;;8.20;99.90;;;;;;5037041;28;20302;-68
2024/02/25 09:05:50;;;;;;;10.05;6.30;;;8.20;99.90;;;;;;5022425;28;20203;-67
2024/02/25 09:08:17;;;;;;;7.30;6.50;;;8.20;99.90;;;;;;5022603;28;20192;-69
2024/02/25 09:10:43;;;;;;;8.82;6.88;;;8.20;99.90;;;;;;5025786;28;20244;-69
2024/02/25 09:13:08;;;;;;;8.10;6.75;;;8.20;99.90;;;;;;5020814;28;20188;-63
2024/02/25 09:15:34;;;;;;;10.18;6.60;;;8.30;99.90;;;;;;5021877;28;20196;-61
2024/02/25 09:18:03;;;;;;;13.63;7.78;;;8.30;99.90;;;;;;5022658;28;20343;-63
2024/02/25 09:20:31;;;;;;;8.70;7.13;;;8.40;99.90;;;;;;5021464;28;20196;-63
2024/02/25 09:23:00;;;;;;;10.90;6.85;;;8.40;99.90;;;;;;5021255;28;20212;-63
2024/02/25 09:25:33;;;;;;;8.73;7.05;;;8.50;99.90;;;;;;5022273;28;20247;-62
2024/02/25 09:28:00;;;;;;;9.70;7.60;;;8.50;99.90;;;;;;5021499;28;20188;-62
2024/02/25 09:30:26;;;;;;;10.18;7.32;;;8.50;99.90;;;;;;5021058;28;20195;-69
2024/02/25 09:32:52;;;;;;;26.60;8.23;;;8.60;99.90;;;;;;5035936;28;20192;-65
2024/02/25 09:35:18;;;;;;;9.70;6.93;;;8.70;99.90;;;;;;5021068;28;20188;-65
2024/02/25 09:37:44;;;;;;;8.68;7.03;;;8.70;99.90;;;;;;5022050;28;20196;-68
2024/02/25 09:40:09;;;;;;;9.18;7.82;;;8.70;99.90;;;;;;5021488;28;20196;-64
2024/02/25 09:42:36;;;;;;;8.70;7.65;;;8.70;99.90;;;;;;5021004;28;20281;-62
2024/02/25 09:45:02;;;;;;;10.18;8.13;;;8.70;99.90;;;;;;5021318;28;20203;-65
2024/02/25 09:47:29;;;;;;;13.95;8.90;;;8.70;99.90;;;;;;5021525;28;21047;-64
2024/02/25 09:49:55;;;;;;;9.73;7.65;;;8.70;99.90;;;;;;5021137;28;20192;-63
2024/02/25 09:52:22;;;;;;;9.55;8.30;;;8.70;99.90;;;;;;5021486;28;20180;-64
2024/02/25 09:54:49;;;;;;;13.52;9.20;;;8.80;99.90;;;;;;5021390;28;20271;-63
2024/02/25 09:57:15;;;;;;;9.98;8.38;;;8.80;99.90;;;;;;5021491;28;20202;-63
2024/02/25 09:59:41;;;;;;;11.77;8.40;;;8.80;99.90;;;;;;5021098;28;20780;-64
2024/02/25 10:02:08;;;;;;;10.27;8.25;;;8.80;99.90;;;;;;5021327;28;20648;-63
2024/02/25 10:04:36;;;;;;;12.02;8.65;;;8.80;99.90;;;;;;5020437;28;20223;-64
2024/02/25 10:07:03;;;;;;;10.35;8.38;;;8.90;99.90;;;;;;5016120;28;20203;-61
2024/02/25 10:09:30;;;;;;;11.10;8.40;;;8.90;99.90;;;;;;5016298;28;20199;-62
2024/02/25 10:11:56;;;;;;;11.80;8.35;;;8.90;99.90;;;;;;5021324;28;20211;-61
2024/02/25 10:14:22;;;;;;;11.15;9.27;;;8.90;99.90;;;;;;5021909;28;20210;-62
2024/02/25 10:17:05;;;;;;;10.85;8.75;;;8.90;99.90;;;;;;5022070;28;20200;-63
2024/02/25 10:19:31;;;;;;;11.30;9.00;;;8.90;99.90;;;;;;5021695;28;20192;-64
2024/02/25 10:22:10;;;;;;;11.48;9.43;;;8.90;99.90;;;;;;5022148;28;20652;-64
2024/02/25 10:24:37;;;;;;;11.27;9.00;;;8.90;99.90;;;;;;5021707;28;20207;-63
2024/02/25 10:27:10;;;;;;;12.93;9.40;;;8.90;99.90;;;;;;5021288;28;20596;-65
2024/02/25 10:29:53;;;;;;;11.55;9.20;;;8.80;99.90;;;;;;5037377;28;20191;-63
2024/02/25 10:32:26;;;;;;;12.93;9.20;;;8.80;99.90;;;;;;5021966;28;20554;-63
2024/02/25 10:34:54;;;;;;;12.70;9.57;;;8.80;99.90;;;;;;5021127;28;20246;-64
2024/02/25 10:37:27;;;;;;;11.90;9.38;;;8.80;99.90;;;;;;5021771;28;20223;-65
2024/02/25 10:39:55;;;;;;;11.57;9.65;;;8.80;99.90;;;;;;5021498;28;20202;-63
2024/02/25 10:42:24;;;;;;;14.40;9.27;;;8.80;99.90;;;;;;5020923;28;20667;-66
2024/02/25 10:44:57;;;;;;;12.77;9.95;;;8.90;99.90;;;;;;5020948;28;20211;-64
2024/02/25 10:47:25;;;;;;;12.30;9.60;;;9.00;99.90;;;;;;5020968;28;20199;-64
2024/02/25 10:49:53;;;;;;;13.23;10.38;;;9.10;99.90;;;;;;5020359;28;20195;-64
2024/02/25 10:52:23;;;;;;;10.45;9.30;;;9.10;99.90;;;;;;5021257;28;20236;-64
2024/02/25 10:54:50;;;;;;;11.85;9.77;;;9.30;99.90;;;;;;5020633;28;20191;-64
2024/02/25 10:57:17;;;;;;;14.18;9.30;;;9.30;99.90;;;;;;5021210;28;20187;-66
2024/02/25 10:59:46;;;;;;;13.13;10.10;;;9.40;99.90;;;;;;5020569;28;20196;-66
2024/02/25 11:02:14;;;;;;;10.73;9.63;;;9.50;99.90;;;;;;5021168;28;20558;-64
2024/02/25 11:04:40;;;;;;;12.30;10.43;;;9.70;99.90;;;;;;5019981;28;20730;-61
2024/02/25 11:07:07;;;;;;;11.68;10.18;;;9.80;99.90;;;;;;5020763;28;20192;-64
2024/02/25 11:09:33;;;;;;;12.65;10.05;;;9.80;99.90;;;;;;5020948;28;20196;-64
2024/02/25 11:12:21;;;;;;;12.68;10.07;;;9.90;99.90;;;;;;5020348;28;20203;-65
2024/02/25 11:14:53;;;;;;;11.05;9.50;;;10.00;99.90;;;;;;5020276;28;20850;-68
2024/02/25 11:17:27;;;;;;;13.68;9.65;;;10.10;99.90;;;;;;5019869;28;20192;-67
2024/02/25 11:20:05;;;;;;;10.55;8.68;;;10.20;99.90;;;;;;5021311;28;20273;-69
2024/02/25 11:22:41;;;;;;;11.63;9.50;;;10.30;99.90;;;;;;5021131;28;20191;-67
2024/02/25 11:25:30;;;;;;;11.00;9.48;;;10.40;99.90;;;;;;5020479;28;20200;-68
2024/02/25 11:27:59;;;;;;;11.43;9.52;;;10.50;99.90;;;;;;5019804;28;20183;-68
2024/02/25 11:30:48;;;;;;;12.45;9.38;;;10.50;99.90;;;;;;5021545;28;20577;-69
2024/02/25 11:33:44;;;;;;;11.38;9.48;;;10.50;99.90;;;;;;5023472;28;20188;-68
2024/02/25 11:36:19;;;;;;;13.90;10.48;;;10.60;99.90;;;;;;5035061;28;20196;-68
2024/02/25 11:38:47;;;;;;;11.52;9.70;;;10.60;99.90;;;;;;5023826;28;20195;-68
2024/02/25 11:41:13;;;;;;;11.40;10.05;;;10.60;99.90;;;;;;5022376;28;20184;-65
2024/02/25 11:43:40;;;;;;;10.68;9.52;;;10.60;99.90;;;;;;5020519;28;20238;-64
2024/02/25 11:46:07;;;;;;;10.75;9.52;;;10.60;99.90;;;;;;5020304;28;20880;-65
2024/02/25 11:48:34;;;;;;;12.50;9.82;;;10.50;99.90;;;;;;5020906;28;20199;-64
2024/02/25 11:51:01;;;;;;;12.18;9.93;;;10.40;99.90;;;;;;5020857;28;20207;-64
2024/02/25 11:53:26;;;;;;;11.07;9.30;;;10.40;99.90;;;;;;5020271;28;20188;-63
2024/02/25 11:55:52;;;;;;;12.35;10.23;;;10.40;99.90;;;;;;5020437;28;20306;-62
2024/02/25 11:58:19;;;;;;;11.45;9.90;;;10.40;99.90;;;;;;5020678;28;20329;-63
2024/02/25 12:00:45;;;;;;;10.18;8.93;;;10.30;99.90;;;;;;5021825;28;20351;-65
2024/02/25 12:03:12;;;;;;;13.40;9.90;;;10.20;99.90;;;;;;5022733;28;20671;-63
2024/02/25 12:05:37;;;;;;;11.25;9.18;;;10.10;99.90;;;;;;5008807;28;20197;-66
2024/02/25 12:08:03;;;;;;;13.30;10.48;;;10.10;99.90;;;;;;5023881;28;20204;-63
2024/02/25 12:10:30;;;;;;;12.65;10.48;;;10.10;99.90;;;;;;5023870;28;20196;-66
2024/02/25 12:12:56;;;;;;;14.02;10.70;;;10.10;99.90;;;;;;5024227;28;20548;-62
2024/02/25 12:15:27;;;;;;;16.55;11.77;;;10.20;99.90;;;;;;5024010;28;20192;-64
2024/02/25 12:17:53;;;;;;;11.05;8.63;;;10.30;99.90;;;;;;5024236;28;20192;-66
2024/02/25 12:20:19;;;;;;;12.52;9.90;;;10.30;99.90;;;;;;5024399;28;20192;-64
2024/02/25 12:22:48;;;;;;;10.25;9.05;;;10.40;99.90;;;;;;5023834;28;20303;-64
2024/02/25 12:25:17;;;;;;;10.52;8.90;;;10.40;99.90;;;;;;5023777;28;20743;-73
2024/02/25 12:27:45;;;;;;;11.43;9.88;;;10.40;99.90;;;;;;5024108;28;20188;-69
2024/02/25 12:30:12;;;;;;;11.85;9.25;;;10.40;99.90;;;;;;5023729;28;20274;-70
2024/02/25 12:32:38;;;;;;;11.43;9.02;;;10.40;99.90;;;;;;5023681;28;20202;-65
2024/02/25 12:35:05;;;;;;;8.95;7.45;;;10.40;99.90;;;;;;5023202;28;20183;-65
2024/02/25 12:37:31;;;;;;;7.88;6.30;;;10.40;99.90;;;;;;5038439;28;20238;-70
2024/02/25 12:39:57;;;;;;;6.13;4.50;;;10.30;99.90;;;;;;5023567;28;20184;-67
2024/02/25 12:42:23;;;;;;;5.00;4.50;;;10.30;99.90;;;;;;5026400;28;20231;-66
2024/02/25 12:44:49;;;;;;;3.60;3.08;;;10.00;99.90;;;;;;5023340;28;20221;-67
2024/02/25 12:47:15;;;;;;;4.15;3.63;;;9.70;99.90;;;;;;5023765;28;20270;-67
2024/02/25 12:49:41;;;;;;;6.45;4.00;;;9.50;99.90;;;;;;5023426;28;20184;-67